• Join FlightAware (Why Join?)
  • Login
  • US Flag 
12:51PM EDT


 

Airport Tracker/Info


-or-


 

Live Flight TrackerFlight Track Log ✈ SWA1223 ✈ 15-Apr-2013 ✈ KPHX - KEWR

Flight Track Log - Related Links

Times and Time Zones

All times are in EDT time to prevent confusion due to time zone crossing. See the SWA1223 flight status page for this flight to view local times or setup timezone preferences in your user account.

Time Position Orientation Groundspeed Altitude Reporting Facility
EDT Latitude Longitude Course Direction KTS MPH feet Rate Location/Type
01:13PM 33.4333 -112.0333 270° West 148 170 1,700  Level Phoenix TRACON
01:14PM 33.4333 -112.1167 270° West 225 259 4,000 2,040 Climbing Phoenix TRACON
01:15PM 33.4408 -112.1531 284° West 225 259 5,700 2,460 Climbing Albuquerque Center
01:16PM 33.5053 -112.1333 14° North 274 315 8,400 2,400 Climbing Albuquerque Center
01:17PM 33.5811 -112.0778 31° Northeast 317 365 10,700 2,760 Climbing Albuquerque Center
01:18PM 33.6869 -111.9994 32° Northeast 371 427 14,200 3,120 Climbing Albuquerque Center
01:19PM 33.7819 -111.9297 31° Northeast 397 457 17,200 3,060 Climbing Albuquerque Center
01:20PM 33.8856 -111.8522 32° Northeast 399 459 20,600 2,760 Climbing Albuquerque Center
01:21PM 33.9847 -111.7781 32° Northeast 417 480 23,000 2,220 Climbing Albuquerque Center
01:22PM 34.0881 -111.6808 38° Northeast 436 502 25,300 1,980 Climbing Albuquerque Center
01:23PM 34.1747 -111.5819 43° Northeast 456 525 27,200 1,740 Climbing Albuquerque Center
01:24PM 34.2694 -111.4750 43° Northeast 464 534 28,900 1,500 Climbing Albuquerque Center
01:25PM 34.3653 -111.3650 43° Northeast 472 543 30,400 1,680 Climbing Albuquerque Center
01:26PM 34.4833 -111.2319 43° Northeast 480 552 32,400 1,980 Climbing Albuquerque Center
01:27PM 34.5786 -111.1200 44° Northeast 481 554 34,500 1,200 Climbing Albuquerque Center
01:28PM 34.6744 -111.0122 43° Northeast 473 544 35,000 240 Climbing Albuquerque Center
01:29PM 34.7706 -110.9006 44° Northeast 475 547 35,000  Level Albuquerque Center
01:30PM 34.8675 -110.7864 44° Northeast 483 556 35,000  Level Albuquerque Center
01:31PM 34.9753 -110.6611 44° Northeast 487 560 35,000  Level Albuquerque Center
01:32PM 35.0853 -110.5328 44° Northeast 489 563 35,000  Level Albuquerque Center
01:33PM 35.1814 -110.4217 43° Northeast 494 568 35,000  Level Albuquerque Center
01:34PM 35.2936 -110.2914 43° Northeast 497 572 35,000  Level Albuquerque Center
01:35PM 35.3886 -110.1786 44° Northeast 497 572 35,000  Level Albuquerque Center
01:36PM 35.4842 -110.0653 44° Northeast 497 572 35,000  Level Albuquerque Center
01:37PM 35.5953 -109.9322 44° Northeast 499 574 35,000  Level Albuquerque Center
01:38PM 35.6900 -109.8169 45° Northeast 500 575 35,000  Level Albuquerque Center
01:39PM 35.7833 -109.6619 53° Northeast 502 578 35,000 240 Level Albuquerque Center
01:40PM 35.8453 -109.5139 63° Northeast 506 582 35,500 780 Climbing Albuquerque Center
01:41PM 35.8986 -109.3903 62° Northeast 512 589 36,400 1,020 Climbing Denver Center
01:41PM 35.9200 -109.3389 63° Northeast 514 592 36,600 420 Climbing Albuquerque Center
01:42PM 35.9842 -109.1897 62° Northeast 514 592 37,000 180 Climbing Albuquerque Center
01:43PM 36.0361 -109.0675 62° Northeast 508 585 37,000  Level Denver Center
01:44PM 36.0961 -108.9222 63° Northeast 506 582 37,000  Level Denver Center
01:45PM 36.1239 -108.8575 62° Northeast 510 587 37,000  Level Albuquerque Center
01:45PM 36.1669 -108.7592 62° Northeast 515 593 37,000  Level Denver Center
01:46PM 36.2397 -108.5836 63° Northeast 513 590 37,000  Level Denver Center
01:47PM 36.3017 -108.4344 63° Northeast 510 587 37,000  Level Denver Center
01:48PM 36.3739 -108.2600 63° Northeast 509 586 37,000  Level Denver Center
01:49PM 36.4367 -108.1097 63° Northeast 511 588 37,000  Level Denver Center
01:50PM 36.5100 -107.9311 63° Northeast 518 596 37,000  Level Denver Center
01:51PM 36.5625 -107.8017 63° Northeast 525 604 37,000  Level Denver Center
01:52PM 36.6361 -107.6222 63° Northeast 520 598 37,000  Level Denver Center
01:54PM 36.7083 -107.4422 63° Northeast 520 598 37,000  Level Denver Center
01:55PM 36.7719 -107.2867 63° Northeast 526 605 37,000  Level Denver Center
01:56PM 36.8442 -107.1058 63° Northeast 524 603 37,000  Level Denver Center
01:57PM 36.9069 -106.9489 63° Northeast 526 605 37,000  Level Denver Center
01:58PM 36.9814 -106.7664 63° Northeast 528 608 37,000  Level Denver Center
01:59PM 37.0419 -106.6072 64° Northeast 526 605 37,000  Level Denver Center
02:00PM 37.1133 -106.4222 64° Northeast 526 605 37,000  Level Denver Center
02:01PM 37.1769 -106.2650 63° Northeast 527 606 37,000  Level Denver Center
02:02PM 37.2358 -106.1128 64° Northeast 510 587 37,000  Level Denver Center
02:03PM 37.3053 -105.9275 65° Northeast 507 583 37,000  Level Denver Center
02:04PM 37.3678 -105.7817 62° Northeast 512 589 37,000  Level Denver Center
02:05PM 37.4650 -105.6217 53° Northeast 514 592 37,000  Level Denver Center
02:06PM 37.5517 -105.4775 53° Northeast 516 594 37,000  Level Denver Center
02:07PM 37.6369 -105.3356 53° Northeast 528 608 37,000  Level Denver Center
02:08PM 37.7350 -105.1728 53° Northeast 521 600 37,000  Level Denver Center
02:09PM 37.8178 -105.0311 53° Northeast 521 600 37,000  Level Denver Center
02:10PM 37.9008 -104.8886 54° Northeast 523 602 37,000  Level Denver Center
02:11PM 37.9989 -104.7214 53° Northeast 527 606 37,000  Level Denver Center
02:12PM 38.0819 -104.5783 54° Northeast 525 604 37,000  Level Denver Center
02:13PM 38.1792 -104.4119 53° Northeast 521 600 37,000 720 Level Denver Center
02:14PM 38.2611 -104.2689 54° Northeast 520 598 38,500 960 Climbing Denver Center
02:15PM 38.3561 -104.1047 54° Northeast 514 592 39,000 240 Climbing Denver Center
02:16PM 38.4381 -103.9625 54° Northeast 517 595 39,000  Level Denver Center
02:17PM 38.5192 -103.8186 54° Northeast 520 598 39,000  Level Denver Center
02:18PM 38.6144 -103.6511 54° Northeast 519 597 39,000  Level Denver Center
02:19PM 38.6958 -103.5069 54° Northeast 522 601 39,000  Level Denver Center
02:20PM 38.7892 -103.3414 54° Northeast 520 598 39,000  Level Denver Center
02:21PM 38.8739 -103.1906 54° Northeast 519 597 39,000  Level Denver Center
02:22PM 38.9581 -103.0383 55° Northeast 518 596 39,000  Level Denver Center
02:23PM 39.0431 -102.8847 54° Northeast 521 600 39,000  Level Denver Center
02:24PM 39.1325 -102.7250 54° Northeast 530 610 39,000  Level Denver Center
02:25PM 39.2261 -102.5517 55° Northeast 527 606 39,000  Level Denver Center
02:26PM 39.3069 -102.4017 55° Northeast 531 611 39,000  Level Denver Center
02:27PM 39.4008 -102.2339 54° Northeast 530 610 39,000  Level Denver Center
02:28PM 39.4811 -102.0861 55° Northeast 525 604 39,000  Level Denver Center
02:30PM 39.5611 -101.9347 56° Northeast 530 610 39,000  Level Denver Center
02:31PM 39.6544 -101.7614 55° Northeast 527 606 39,000  Level Denver Center
02:32PM 39.7344 -101.6100 55° Northeast 531 611 39,000  Level Denver Center
02:33PM 39.8289 -101.4325 55° Northeast 535 616 39,000  Level Denver Center
02:34PM 39.9097 -101.2786 56° Northeast 538 619 39,000  Level Denver Center
02:35PM 40.0033 -101.0989 56° Northeast 538 619 39,000  Level Denver Center
02:36PM 40.0831 -100.9439 56° Northeast 538 619 39,000  Level Denver Center
02:37PM 40.1767 -100.7650 56° Northeast 536 617 39,000  Level Denver Center
02:38PM 40.2558 -100.6103 56° Northeast 537 618 39,000  Level Denver Center
02:39PM 40.3350 -100.4231 61° Northeast 531 611 39,000  Level Denver Center
02:40PM 40.3686 -100.2456 76° East 526 605 39,000  Level Denver Center
02:41PM 40.4053 -100.0356 77° East 532 612 39,000  Level Denver Center
02:42PM 40.4375 -99.8433 78° East 531 611 39,000  Level Denver Center
02:43PM 40.4694 -99.6556 77° East 529 609 39,000  Level Denver Center
02:44PM 40.5014 -99.4678 77° East 528 608 39,000  Level Denver Center
02:45PM 40.5331 -99.2794 77° East 530 610 39,000  Level Denver Center
02:46PM 40.5639 -99.0919 78° East 528 608 39,000  Level Denver Center
02:46PM 40.5761 -99.0175 78° East 529 609 39,000  Level Minneapolis Center
02:47PM 40.6111 -98.7906 78° East 530 610 39,000  Level Minneapolis Center
02:48PM 40.6414 -98.5994 78° East 535 616 39,000  Level Minneapolis Center
02:50PM 40.6711 -98.4106 78° East 534 615 39,000  Level Minneapolis Center
02:51PM 40.7000 -98.2219 79° East 531 611 39,000  Level Minneapolis Center
02:52PM 40.7289 -98.0325 79° East 531 611 39,000  Level Minneapolis Center
02:53PM 40.7586 -97.8431 78° East 530 610 39,000  Level Minneapolis Center
02:54PM 40.7925 -97.6178 79° East 526 605 39,000  Level Minneapolis Center
02:55PM 40.8258 -97.3914 79° East 524 603 39,000  Level Minneapolis Center
02:56PM 40.8508 -97.2281 79° East 524 603 39,000  Level Minneapolis Center
02:57PM 40.8817 -96.9997 80° East 527 606 39,000  Level Minneapolis Center
02:58PM 40.9108 -96.8108 78° East 527 606 39,000  Level Minneapolis Center
02:59PM 40.9369 -96.6203 80° East 528 608 39,000  Level Minneapolis Center
03:00PM 40.9636 -96.4306 79° East 528 608 39,000  Level Minneapolis Center
03:01PM 40.9900 -96.2403 80° East 530 610 39,000  Level Minneapolis Center
03:02PM 41.0203 -96.0133 80° East 529 609 39,000  Level Minneapolis Center
03:03PM 41.0456 -95.8236 80° East 530 610 39,000  Level Minneapolis Center
03:04PM 41.0708 -95.6344 80° East 529 609 39,000  Level Minneapolis Center
03:05PM 41.0956 -95.4428 80° East 531 611 39,000  Level Minneapolis Center
03:06PM 41.1206 -95.2528 80° East 527 606 39,000  Level Minneapolis Center
03:07PM 41.1447 -95.0633 80° East 523 602 39,000  Level Minneapolis Center
03:08PM 41.1683 -94.8736 81° East 523 602 39,000  Level Minneapolis Center
03:09PM 41.1958 -94.6461 81° East 523 602 39,000  Level Minneapolis Center
03:10PM 41.2183 -94.4544 81° East 525 604 39,000  Level Minneapolis Center
03:11PM 41.2397 -94.2639 81° East 523 602 39,000  Level Minneapolis Center
03:12PM 41.2633 -94.0658 81° East 524 603 39,000  Level Minneapolis Center
03:13PM 41.2864 -93.8739 81° East 526 605 39,000  Level Minneapolis Center
03:14PM 41.3081 -93.6833 81° East 526 605 39,000  Level Minneapolis Center
03:15PM 41.3308 -93.4925 81° East 525 604 39,000  Level Minneapolis Center
03:16PM 41.3533 -93.2992 81° East 528 608 39,000  Level Minneapolis Center
03:17PM 41.3739 -93.1081 82° East 526 605 39,000  Level Minneapolis Center
03:19PM 41.3983 -92.8789 82° East 524 603 39,000  Level Minneapolis Center
03:20PM 41.4228 -92.6503 82° East 522 601 39,000  Level Minneapolis Center
03:21PM 41.4425 -92.4594 82° East 522 601 39,000  Level Minneapolis Center
03:21PM 41.4508 -92.3761 82° East 522 601 39,000  Level Chicago Center
03:22PM 41.4731 -92.1475 83° East 523 602 39,000  Level Chicago Center
03:23PM 41.4925 -91.9553 82° East 526 605 39,000  Level Chicago Center
03:24PM 41.5114 -91.7639 82° East 527 606 39,000  Level Chicago Center
03:25PM 41.5306 -91.5694 82° East 531 611 39,000  Level Chicago Center
03:26PM 41.5483 -91.3789 83° East 527 606 39,000  Level Chicago Center
03:27PM 41.5700 -91.1497 83° East 526 605 39,000  Level Chicago Center
03:29PM 41.5872 -90.9561 83° East 530 610 39,000  Level Chicago Center
03:30PM 41.6042 -90.7594 83° East 535 616 39,000  Level Chicago Center
03:31PM 41.6208 -90.5597 84° East 530 610 39,000  Level Chicago Center
03:32PM 41.6381 -90.3628 83° East 532 612 39,000  Level Chicago Center
03:33PM 41.6544 -90.1678 84° East 527 606 39,000  Level Chicago Center
03:34PM 41.6700 -89.9717 84° East 528 608 39,000  Level Chicago Center
03:35PM 41.6864 -89.7764 84° East 528 608 39,000  Level Chicago Center
03:36PM 41.7047 -89.5378 84° East 528 608 39,000  Level Chicago Center
03:37PM 41.7172 -89.3458 85° East 521 600 39,000  Level Chicago Center
03:38PM 41.7317 -89.1544 84° East 519 597 39,000  Level Chicago Center
03:39PM 41.7453 -88.9617 85° East 520 598 39,000  Level Chicago Center
03:40PM 41.7589 -88.7697 85° East 520 598 39,000  Level Chicago Center
03:41PM 41.7719 -88.5769 85° East 521 600 39,000  Level Chicago Center
03:42PM 41.7856 -88.3836 85° East 521 600 39,000  Level Chicago Center
03:43PM 41.7981 -88.1894 85° East 521 600 39,000  Level Chicago Center
03:44PM 41.8133 -87.9558 85° East 522 601 39,000  Level Chicago Center
03:45PM 41.8247 -87.7628 85° East 518 596 39,000  Level Chicago Center
03:46PM 41.8358 -87.5697 86° East 517 595 39,000  Level Chicago Center
03:47PM 41.8472 -87.3753 85° East 521 600 39,000  Level Chicago Center
03:48PM 41.8581 -87.1811 86° East 522 601 39,000  Level Chicago Center
03:49PM 41.8694 -86.9864 85° East 523 602 39,000  Level Chicago Center
03:50PM 41.8789 -86.7917 86° East 524 603 39,000  Level Chicago Center
03:51PM 41.8911 -86.5808 85° East 526 605 39,000  Level Chicago Center
03:52PM 41.9003 -86.3842 86° East 526 605 39,000  Level Chicago Center
03:53PM 41.9094 -86.1872 86° East 528 608 39,000  Level Chicago Center
03:54PM 41.9208 -85.9514 86° East 526 605 39,000  Level Chicago Center
03:55PM 41.9283 -85.7536 87° East 528 608 39,000  Level Chicago Center
03:56PM 41.9383 -85.5561 86° East 526 605 39,000  Level Chicago Center
03:57PM 41.9458 -85.3572 87° East 527 606 39,000  Level Chicago Center
03:58PM 41.9550 -85.1881 86° East 545 627 39,000  Level Cleveland Center
03:59PM 41.9522 -84.9981 91° East 540 621 39,000  Level Cleveland Center
04:00PM 41.9511 -84.7994 90° East 533 613 39,000  Level Cleveland Center
04:01PM 41.9497 -84.6094 90° East 515 593 39,000  Level Cleveland Center
04:02PM 41.9481 -84.4167 91° East 515 593 39,000  Level Cleveland Center
04:03PM 41.9433 -84.2433 92° East 520 598 39,000  Level Cleveland Center
04:04PM 41.9411 -84.0450 91° East 520 598 39,000  Level Cleveland Center
04:05PM 41.9383 -83.8550 91° East 520 598 39,000  Level Cleveland Center
04:06PM 41.9333 -83.6592 92° East 520 598 39,000  Level Cleveland Center
04:07PM 41.9322 -83.4636 90° East 520 598 39,000  Level Cleveland Center
04:08PM 41.9306 -83.2683 91° East 515 593 39,000  Level Cleveland Center
04:09PM 41.9311 -83.0561 90° East 515 593 39,000  Level Cleveland Center
04:10PM 41.9289 -82.8661 91° East 515 593 39,000  Level Cleveland Center
04:11PM 41.9283 -82.6736 90° East 515 593 39,000  Level Cleveland Center
04:12PM 41.9233 -82.4808 92° East 520 598 39,000  Level Cleveland Center
04:13PM 41.9222 -82.2883 90° East 515 593 39,000  Level Cleveland Center
04:14PM 41.9208 -82.1011 91° East 515 593 39,000  Level Cleveland Center
04:15PM 41.9189 -81.9114 91° East 510 587 39,000  Level Cleveland Center
04:16PM 41.9083 -81.7214 94° East 510 587 39,000  Level Cleveland Center
04:17PM 41.8914 -81.5317 97° East 516 594 39,000  Level Cleveland Center
04:18PM 41.8742 -81.3417 97° East 516 594 39,000  Level Cleveland Center
04:19PM 41.8564 -81.1769 98° East 516 594 39,000  Level Cleveland Center
04:20PM 41.8406 -80.9872 96° East 511 588 39,000  Level Cleveland Center
04:21PM 41.8222 -80.8033 98° East 505 581 39,000  Level Cleveland Center
04:22PM 41.8036 -80.6139 97° East 499 574 39,000  Level Cleveland Center
04:23PM 41.7847 -80.4272 98° East 499 574 39,000  Level Cleveland Center
04:24PM 41.7656 -80.2239 97° East 504 580 39,000  Level Cleveland Center
04:25PM 41.7439 -80.0406 99° East 499 574 39,000  Level Cleveland Center
04:26PM 41.7283 -79.8597 97° East 499 574 39,000  Level Cleveland Center
04:27PM 41.7064 -79.6764 99° East 499 574 39,000  Level Cleveland Center
04:28PM 41.6881 -79.4961 98° East 499 574 39,000  Level Cleveland Center
04:29PM 41.6675 -79.3128 98° East 499 574 39,000  Level Cleveland Center
04:30PM 41.6486 -79.1297 98° East 505 581 39,000  Level Cleveland Center
04:31PM 41.6272 -78.9442 99° East 499 574 39,000  Level Cleveland Center
04:32PM 41.6058 -78.7642 99° East 499 574 39,000  Level Cleveland Center
04:33PM 41.5861 -78.5842 98° East 499 574 39,000 -540 Level Cleveland Center
04:34PM 41.5661 -78.4044 98° East 499 574 38,000 -1,800 Descending Cleveland Center
04:35PM 41.5425 -78.2106 99° East 470 541 35,100 -2,820 Descending New York Center
04:36PM 41.5200 -78.0333 100° East 470 541 32,100 -2,100 Descending New York Center
04:37PM 41.4975 -77.8536 99° East 475 547 31,000 -600 Descending New York Center
04:38PM 41.4739 -77.6931 101° East 480 552 31,000  Level New York Center
04:39PM 41.4486 -77.5161 101° East 485 558 31,000 -240 Level New York Center
04:40PM 41.4175 -77.3250 102° East 485 558 30,600 -660 Descending New York Center
04:41PM 41.3917 -77.1481 101° East 485 558 29,700 -960 Descending New York Center
04:42PM 41.3658 -76.9686 101° East 485 558 28,700 -1,020 Descending New York Center
04:43PM 41.3394 -76.7950 101° East 485 558 27,700 -1,500 Descending New York Center
04:44PM 41.2975 -76.6308 109° East 479 551 25,800 -2,100 Descending New York Center
04:45PM 41.2533 -76.4725 110° East 462 532 23,500 -2,280 Descending New York Center
04:46PM 41.2125 -76.3203 110° East 452 520 21,300 -1,920 Descending New York Center
04:47PM 41.1789 -76.1906 109° East 431 496 19,600 -1,380 Descending New York Center
04:48PM 41.1417 -76.0472 109° East 412 474 18,600 -960 Descending New York Center
04:49PM 41.1022 -75.9008 110° East 391 450 17,800 -1,260 Descending New York Center
04:50PM 41.0644 -75.7658 110° East 391 450 16,100 -1,920 Descending New York Center
04:51PM 41.0281 -75.6367 110° East 381 438 13,900 -1,620 Descending New York Center
04:52PM 40.9956 -75.5161 110° East 362 417 12,900 -540 Descending New York Center
04:53PM 40.9644 -75.4042 110° East 334 384 12,900 -600 Level New York Center
04:54PM 40.9333 -75.2919 110° East 328 377 11,800 -1,320 Descending New York Center
04:55PM 40.9022 -75.1828 111° Southeast 323 372 10,300 -1,200 Descending New York Center
04:56PM 40.8761 -75.0989 112° Southeast 293 337 9,500 -960 Descending New York Center
04:57PM 40.8653 -74.9967 98° East 278 320 8,400 -1,140 Descending New York Center
04:58PM 40.8608 -74.8839 93° East 280 322 7,300 -1,020 Descending New York Center
04:59PM 40.8806 -74.7917 74° East 280 322 6,400 -720 Descending New York Center
05:00PM 40.9011 -74.6803 76° East 286 329 6,000 -240 Descending New York Center
05:01PM 40.9211 -74.5800 75° East 291 335 6,000 -360 Level New York Center
05:02PM 40.9553 -74.4831 65° Northeast 286 329 5,300 -540 Descending New York Center
05:03PM 40.9978 -74.3947 57° Northeast 286 329 5,000 -240 Descending New York Center
05:04PM 41.0000 -74.3500 86° East 259 298 5,000 60 Level New York TRACON
05:05PM 41.0000 -74.2667 90° East 243 280 5,100 -300 Climbing New York TRACON
05:06PM 41.0000 -74.1833 90° East 205 236 4,500 -600 Descending New York TRACON
05:07PM 40.9833 -74.1167 108° East 192 221 4,000 -300 Descending New York TRACON
05:08PM 40.9500 -74.0667 131° Southeast 184 212 4,000 -480 Level New York TRACON
05:09PM 40.9167 -74.0500 159° South 172 198 3,100 -540 Descending New York TRACON
05:10PM 40.8667 -74.0500 180° South 169 194 3,000 -180 Descending New York TRACON
05:11PM 40.8167 -74.0833 207° Southwest 169 194 2,800 -660 Descending New York TRACON
05:12PM 40.7667 -74.1167 207° Southwest 172 198 1,700 -960 Descending New York TRACON
05:13PM 40.7333 -74.1333 201° Southwest 140 161 900 -840 Descending New York TRACON
05:15PM 40.6833 -74.1667 126° Southeast  Level FlightAware Approximate
05:22PM 40.6925 -74.1687 126° Southeast  Level Estimated
05:23PM 40.6925 -74.1687 126° Southeast  Level Estimated
05:24PM 40.6925 -74.1687 126° Southeast  Level Estimated
05:25PM 40.6925 -74.1687 126° Southeast  Level Estimated